sensor_id;sensor_type;location;lat;lon;timestamp;temperature;humidity
39017;DHT22;24784;45.582;5.276;2022-12-10T00:44:02;1.90;99.90
39017;DHT22;24784;45.582;5.276;2022-12-10T01:37:05;2.00;99.90
39017;DHT22;24784;45.582;5.276;2022-12-10T03:29:23;1.70;99.90
39017;DHT22;24784;45.582;5.276;2022-12-10T03:34:54;1.80;99.90
39017;DHT22;24784;45.582;5.276;2022-12-10T03:37:38;1.80;99.90
39017;DHT22;24784;45.582;5.276;2022-12-10T03:40:28;1.60;99.90
39017;DHT22;24784;45.582;5.276;2022-12-10T03:48:52;1.60;99.90
39017;DHT22;24784;45.582;5.276;2022-12-10T03:54:13;1.70;99.90
39017;DHT22;24784;45.582;5.276;2022-12-10T04:04:55;1.60;99.90
39017;DHT22;24784;45.582;5.276;2022-12-10T04:07:52;1.60;99.90
39017;DHT22;24784;45.582;5.276;2022-12-10T04:13:13;1.60;99.90
39017;DHT22;24784;45.582;5.276;2022-12-10T04:36:42;1.40;99.90
39017;DHT22;24784;45.582;5.276;2022-12-10T04:45:10;1.40;99.90
39017;DHT22;24784;45.582;5.276;2022-12-10T04:56:09;1.40;99.90
39017;DHT22;24784;45.582;5.276;2022-12-10T05:01:33;1.40;99.90
39017;DHT22;24784;45.582;5.276;2022-12-10T05:04:53;1.40;99.90
39017;DHT22;24784;45.582;5.276;2022-12-10T06:11:51;1.10;99.90
39017;DHT22;24784;45.582;5.276;2022-12-10T06:17:46;1.10;99.90
39017;DHT22;24784;45.582;5.276;2022-12-10T06:34:33;1.10;99.90
39017;DHT22;24784;45.582;5.276;2022-12-10T06:58:57;1.20;99.90
39017;DHT22;24784;45.582;5.276;2022-12-10T07:01:47;1.10;99.90
39017;DHT22;24784;45.582;5.276;2022-12-10T07:04:18;1.10;99.90
39017;DHT22;24784;45.582;5.276;2022-12-10T07:06:47;1.10;99.90
39017;DHT22;24784;45.582;5.276;2022-12-10T07:09:18;1.20;99.90
39017;DHT22;24784;45.582;5.276;2022-12-10T07:14:34;1.10;99.90
39017;DHT22;24784;45.582;5.276;2022-12-10T07:17:04;1.10;99.90
39017;DHT22;24784;45.582;5.276;2022-12-10T07:19:38;1.20;99.90
39017;DHT22;24784;45.582;5.276;2022-12-10T07:22:06;1.10;99.90
39017;DHT22;24784;45.582;5.276;2022-12-10T07:24:32;1.10;99.90
39017;DHT22;24784;45.582;5.276;2022-12-10T07:27:07;1.10;99.90
39017;DHT22;24784;45.582;5.276;2022-12-10T07:29:36;1.10;99.90
39017;DHT22;24784;45.582;5.276;2022-12-10T07:32:05;1.10;99.90
39017;DHT22;24784;45.582;5.276;2022-12-10T07:34:31;1.00;99.90
39017;DHT22;24784;45.582;5.276;2022-12-10T07:36:59;1.10;99.90
39017;DHT22;24784;45.582;5.276;2022-12-10T07:39:29;1.10;99.90
39017;DHT22;24784;45.582;5.276;2022-12-10T07:41:57;1.10;99.90
39017;DHT22;24784;45.582;5.276;2022-12-10T07:44:29;1.00;99.90
39017;DHT22;24784;45.582;5.276;2022-12-10T07:47:00;1.00;99.90
39017;DHT22;24784;45.582;5.276;2022-12-10T07:49:26;1.00;99.90
39017;DHT22;24784;45.582;5.276;2022-12-10T07:51:57;1.00;99.90
39017;DHT22;24784;45.582;5.276;2022-12-10T07:54:31;1.00;99.90
39017;DHT22;24784;45.582;5.276;2022-12-10T07:57:08;1.00;99.90
39017;DHT22;24784;45.582;5.276;2022-12-10T07:59:38;1.00;99.90
39017;DHT22;24784;45.582;5.276;2022-12-10T08:02:05;1.00;99.90
39017;DHT22;24784;45.582;5.276;2022-12-10T08:04:33;1.00;99.90
39017;DHT22;24784;45.582;5.276;2022-12-10T08:07:09;1.00;99.90
39017;DHT22;24784;45.582;5.276;2022-12-10T08:09:55;1.00;99.90
39017;DHT22;24784;45.582;5.276;2022-12-10T08:12:23;0.90;99.90
39017;DHT22;24784;45.582;5.276;2022-12-10T08:14:54;1.00;99.90
39017;DHT22;24784;45.582;5.276;2022-12-10T08:17:23;0.90;99.90
39017;DHT22;24784;45.582;5.276;2022-12-10T08:19:58;0.90;99.90
39017;DHT22;24784;45.582;5.276;2022-12-10T08:22:27;0.90;99.90
39017;DHT22;24784;45.582;5.276;2022-12-10T08:24:55;1.00;99.90
39017;DHT22;24784;45.582;5.276;2022-12-10T08:27:45;0.90;99.90
39017;DHT22;24784;45.582;5.276;2022-12-10T08:30:18;0.90;99.90
39017;DHT22;24784;45.582;5.276;2022-12-10T08:32:46;1.00;99.90
39017;DHT22;24784;45.582;5.276;2022-12-10T08:35:22;0.90;99.90
39017;DHT22;24784;45.582;5.276;2022-12-10T08:37:59;1.00;99.90
39017;DHT22;24784;45.582;5.276;2022-12-10T08:40:33;0.90;99.90
39017;DHT22;24784;45.582;5.276;2022-12-10T08:43:19;1.00;99.90
39017;DHT22;24784;45.582;5.276;2022-12-10T08:45:53;1.00;99.90
39017;DHT22;24784;45.582;5.276;2022-12-10T08:48:38;1.00;99.90
39017;DHT22;24784;45.582;5.276;2022-12-10T08:51:17;0.90;99.90
39017;DHT22;24784;45.582;5.276;2022-12-10T08:53:53;1.00;99.90
39017;DHT22;24784;45.582;5.276;2022-12-10T08:56:24;1.00;99.90
39017;DHT22;24784;45.582;5.276;2022-12-10T08:59:07;1.00;99.90
39017;DHT22;24784;45.582;5.276;2022-12-10T09:01:45;1.00;99.90
39017;DHT22;24784;45.582;5.276;2022-12-10T09:04:23;1.00;99.90
39017;DHT22;24784;45.582;5.276;2022-12-10T09:30:57;1.20;99.90
39017;DHT22;24784;45.582;5.276;2022-12-10T09:33:42;1.20;99.90
39017;DHT22;24784;45.582;5.276;2022-12-10T09:48:05;1.20;99.90
39017;DHT22;24784;45.582;5.276;2022-12-10T09:51:05;1.20;99.90
39017;DHT22;24784;45.582;5.276;2022-12-10T09:53:42;1.20;99.90
39017;DHT22;24784;45.582;5.276;2022-12-10T09:56:21;1.30;99.90
39017;DHT22;24784;45.582;5.276;2022-12-10T09:59:11;1.30;99.90
39017;DHT22;24784;45.582;5.276;2022-12-10T10:46:52;1.20;99.90
39017;DHT22;24784;45.582;5.276;2022-12-10T10:49:35;1.20;99.90
39017;DHT22;24784;45.582;5.276;2022-12-10T12:13:41;1.50;99.90
39017;DHT22;24784;45.582;5.276;2022-12-10T12:16:16;1.40;99.90
39017;DHT22;24784;45.582;5.276;2022-12-10T12:19:05;1.40;99.90
39017;DHT22;24784;45.582;5.276;2022-12-10T12:21:48;1.30;99.90
39017;DHT22;24784;45.582;5.276;2022-12-10T12:24:22;1.40;99.90
39017;DHT22;24784;45.582;5.276;2022-12-10T12:27:02;1.40;99.90
39017;DHT22;24784;45.582;5.276;2022-12-10T12:29:46;1.30;99.90
39017;DHT22;24784;45.582;5.276;2022-12-10T12:32:24;1.30;99.90
39017;DHT22;24784;45.582;5.276;2022-12-10T12:38:15;1.30;99.90
39017;DHT22;24784;45.582;5.276;2022-12-10T12:40:56;1.30;99.90
39017;DHT22;24784;45.582;5.276;2022-12-10T12:43:32;1.20;99.90
39017;DHT22;24784;45.582;5.276;2022-12-10T12:46:02;1.20;99.90
39017;DHT22;24784;45.582;5.276;2022-12-10T12:51:33;1.20;99.90
39017;DHT22;24784;45.582;5.276;2022-12-10T12:54:00;1.20;99.90
39017;DHT22;24784;45.582;5.276;2022-12-10T12:57:28;1.30;99.90
39017;DHT22;24784;45.582;5.276;2022-12-10T15:55:41;0.90;99.90
39017;DHT22;24784;45.582;5.276;2022-12-10T15:58:13;0.90;99.90
39017;DHT22;24784;45.582;5.276;2022-12-10T16:01:05;1.00;99.90
39017;DHT22;24784;45.582;5.276;2022-12-10T16:08:54;1.00;99.90
39017;DHT22;24784;45.582;5.276;2022-12-10T16:14:00;1.00;99.90
39017;DHT22;24784;45.582;5.276;2022-12-10T16:51:26;1.10;99.90
39017;DHT22;24784;45.582;5.276;2022-12-10T16:56:38;1.00;99.90
39017;DHT22;24784;45.582;5.276;2022-12-10T16:59:07;1.00;99.90
39017;DHT22;24784;45.582;5.276;2022-12-10T17:09:21;1.00;99.90
39017;DHT22;24784;45.582;5.276;2022-12-10T17:11:47;1.00;99.90
39017;DHT22;24784;45.582;5.276;2022-12-10T17:16:53;1.00;99.90
39017;DHT22;24784;45.582;5.276;2022-12-10T17:19:21;1.10;99.90
39017;DHT22;24784;45.582;5.276;2022-12-10T17:21:52;1.10;99.90
39017;DHT22;24784;45.582;5.276;2022-12-10T17:24:21;1.00;99.90
39017;DHT22;24784;45.582;5.276;2022-12-10T17:26:52;1.10;99.90
39017;DHT22;24784;45.582;5.276;2022-12-10T17:29:32;1.10;99.90
39017;DHT22;24784;45.582;5.276;2022-12-10T17:32:02;1.00;99.90
39017;DHT22;24784;45.582;5.276;2022-12-10T17:34:30;1.00;99.90
39017;DHT22;24784;45.582;5.276;2022-12-10T17:36:56;1.00;99.90
39017;DHT22;24784;45.582;5.276;2022-12-10T17:39:25;0.90;99.90
39017;DHT22;24784;45.582;5.276;2022-12-10T17:41:54;1.00;99.90
39017;DHT22;24784;45.582;5.276;2022-12-10T17:44:28;0.90;99.90
39017;DHT22;24784;45.582;5.276;2022-12-10T17:47:01;1.00;99.90
39017;DHT22;24784;45.582;5.276;2022-12-10T17:49:48;1.00;99.90
39017;DHT22;24784;45.582;5.276;2022-12-10T17:54:49;1.00;99.90
39017;DHT22;24784;45.582;5.276;2022-12-10T17:57:22;1.00;99.90
39017;DHT22;24784;45.582;5.276;2022-12-10T17:59:57;1.00;99.90
39017;DHT22;24784;45.582;5.276;2022-12-10T18:02:23;1.00;99.90
39017;DHT22;24784;45.582;5.276;2022-12-10T18:04:55;1.10;99.90
39017;DHT22;24784;45.582;5.276;2022-12-10T18:07:21;1.00;99.90
39017;DHT22;24784;45.582;5.276;2022-12-10T18:09:47;1.00;99.90
39017;DHT22;24784;45.582;5.276;2022-12-10T18:12:13;1.00;99.90
39017;DHT22;24784;45.582;5.276;2022-12-10T18:14:39;1.00;99.90
39017;DHT22;24784;45.582;5.276;2022-12-10T18:17:13;0.90;99.90
39017;DHT22;24784;45.582;5.276;2022-12-10T18:19:39;0.90;99.90
39017;DHT22;24784;45.582;5.276;2022-12-10T18:22:06;0.90;99.90
39017;DHT22;24784;45.582;5.276;2022-12-10T18:24:32;0.90;99.90
39017;DHT22;24784;45.582;5.276;2022-12-10T18:26:57;1.00;99.90
39017;DHT22;24784;45.582;5.276;2022-12-10T18:29:26;0.90;99.90
39017;DHT22;24784;45.582;5.276;2022-12-10T18:31:52;1.00;99.90
39017;DHT22;24784;45.582;5.276;2022-12-10T18:34:17;1.00;99.90
39017;DHT22;24784;45.582;5.276;2022-12-10T18:36:46;1.00;99.90
39017;DHT22;24784;45.582;5.276;2022-12-10T18:39:23;0.90;99.90
39017;DHT22;24784;45.582;5.276;2022-12-10T18:41:50;1.00;99.90
39017;DHT22;24784;45.582;5.276;2022-12-10T18:44:21;1.00;99.90
39017;DHT22;24784;45.582;5.276;2022-12-10T18:46:50;1.00;99.90
39017;DHT22;24784;45.582;5.276;2022-12-10T18:49:18;1.00;99.90
39017;DHT22;24784;45.582;5.276;2022-12-10T18:51:43;1.00;99.90
39017;DHT22;24784;45.582;5.276;2022-12-10T18:54:10;0.90;99.90
39017;DHT22;24784;45.582;5.276;2022-12-10T18:56:37;0.90;99.90
39017;DHT22;24784;45.582;5.276;2022-12-10T18:59:04;0.90;99.90
39017;DHT22;24784;45.582;5.276;2022-12-10T19:01:31;0.90;99.90
39017;DHT22;24784;45.582;5.276;2022-12-10T19:03:58;0.90;99.90
39017;DHT22;24784;45.582;5.276;2022-12-10T19:06:26;0.90;99.90
39017;DHT22;24784;45.582;5.276;2022-12-10T19:08:53;0.90;99.90
39017;DHT22;24784;45.582;5.276;2022-12-10T19:11:20;0.90;99.90
39017;DHT22;24784;45.582;5.276;2022-12-10T19:13:48;0.80;99.90
39017;DHT22;24784;45.582;5.276;2022-12-10T19:16:22;0.80;99.90
39017;DHT22;24784;45.582;5.276;2022-12-10T19:18:50;0.80;99.90
39017;DHT22;24784;45.582;5.276;2022-12-10T19:21:16;0.80;99.90
39017;DHT22;24784;45.582;5.276;2022-12-10T19:23:42;0.70;99.90
39017;DHT22;24784;45.582;5.276;2022-12-10T19:26:30;0.80;99.90
39017;DHT22;24784;45.582;5.276;2022-12-10T19:29:00;0.70;99.90
39017;DHT22;24784;45.582;5.276;2022-12-10T19:31:27;0.80;99.90
39017;DHT22;24784;45.582;5.276;2022-12-10T19:33:53;0.80;99.90
39017;DHT22;24784;45.582;5.276;2022-12-10T19:36:24;0.80;99.90
39017;DHT22;24784;45.582;5.276;2022-12-10T19:38:54;0.70;99.90
39017;DHT22;24784;45.582;5.276;2022-12-10T19:41:20;0.80;99.90
39017;DHT22;24784;45.582;5.276;2022-12-10T19:43:46;0.70;99.90
39017;DHT22;24784;45.582;5.276;2022-12-10T19:46:14;0.70;99.90
39017;DHT22;24784;45.582;5.276;2022-12-10T19:48:41;0.70;99.90
39017;DHT22;24784;45.582;5.276;2022-12-10T19:51:08;0.70;99.90
39017;DHT22;24784;45.582;5.276;2022-12-10T19:53:34;0.60;99.90
39017;DHT22;24784;45.582;5.276;2022-12-10T19:56:00;0.60;99.90
39017;DHT22;24784;45.582;5.276;2022-12-10T19:58:26;0.60;99.90
39017;DHT22;24784;45.582;5.276;2022-12-10T20:00:52;0.60;99.90
39017;DHT22;24784;45.582;5.276;2022-12-10T20:03:18;0.60;99.90
39017;DHT22;24784;45.582;5.276;2022-12-10T20:05:44;0.60;99.90
39017;DHT22;24784;45.582;5.276;2022-12-10T20:08:11;0.60;99.90
39017;DHT22;24784;45.582;5.276;2022-12-10T20:10:37;0.50;99.90
39017;DHT22;24784;45.582;5.276;2022-12-10T20:13:03;0.60;99.90
39017;DHT22;24784;45.582;5.276;2022-12-10T20:15:29;0.60;99.90
39017;DHT22;24784;45.582;5.276;2022-12-10T20:17:55;0.50;99.90
39017;DHT22;24784;45.582;5.276;2022-12-10T20:20:27;0.50;99.90
39017;DHT22;24784;45.582;5.276;2022-12-10T20:22:53;0.50;99.90
39017;DHT22;24784;45.582;5.276;2022-12-10T20:25:21;0.50;99.90
39017;DHT22;24784;45.582;5.276;2022-12-10T20:27:48;0.50;99.90
39017;DHT22;24784;45.582;5.276;2022-12-10T20:30:22;0.50;99.90
39017;DHT22;24784;45.582;5.276;2022-12-10T20:32:48;0.40;99.90
39017;DHT22;24784;45.582;5.276;2022-12-10T20:35:16;0.50;99.90
39017;DHT22;24784;45.582;5.276;2022-12-10T20:37:45;0.40;99.90
39017;DHT22;24784;45.582;5.276;2022-12-10T20:40:18;0.40;99.90
39017;DHT22;24784;45.582;5.276;2022-12-10T20:42:44;0.40;99.90
39017;DHT22;24784;45.582;5.276;2022-12-10T20:45:11;0.50;99.90
39017;DHT22;24784;45.582;5.276;2022-12-10T20:47:37;0.40;99.90
39017;DHT22;24784;45.582;5.276;2022-12-10T20:50:04;0.40;99.90
39017;DHT22;24784;45.582;5.276;2022-12-10T20:52:34;0.40;99.90
39017;DHT22;24784;45.582;5.276;2022-12-10T20:55:00;0.40;99.90
39017;DHT22;24784;45.582;5.276;2022-12-10T20:57:26;0.40;99.90
39017;DHT22;24784;45.582;5.276;2022-12-10T20:59:52;0.30;99.90
39017;DHT22;24784;45.582;5.276;2022-12-10T21:02:18;0.30;99.90
39017;DHT22;24784;45.582;5.276;2022-12-10T21:04:43;0.30;99.90
39017;DHT22;24784;45.582;5.276;2022-12-10T21:07:12;0.30;99.90
39017;DHT22;24784;45.582;5.276;2022-12-10T21:09:39;0.20;99.90
39017;DHT22;24784;45.582;5.276;2022-12-10T21:12:05;0.20;99.90
39017;DHT22;24784;45.582;5.276;2022-12-10T21:14:31;0.10;99.90
39017;DHT22;24784;45.582;5.276;2022-12-10T21:16:57;0.10;99.90
39017;DHT22;24784;45.582;5.276;2022-12-10T21:19:25;0.20;99.90
39017;DHT22;24784;45.582;5.276;2022-12-10T21:21:51;0.20;99.90
39017;DHT22;24784;45.582;5.276;2022-12-10T21:24:17;0.10;99.90
39017;DHT22;24784;45.582;5.276;2022-12-10T21:26:43;0.20;99.90
39017;DHT22;24784;45.582;5.276;2022-12-10T21:29:09;0.10;99.90
39017;DHT22;24784;45.582;5.276;2022-12-10T21:31:35;0.10;99.90
39017;DHT22;24784;45.582;5.276;2022-12-10T21:34:01;0.10;99.90
39017;DHT22;24784;45.582;5.276;2022-12-10T21:36:27;0.10;99.90
39017;DHT22;24784;45.582;5.276;2022-12-10T21:38:53;0.10;99.90
39017;DHT22;24784;45.582;5.276;2022-12-10T21:41:22;0.10;99.90
39017;DHT22;24784;45.582;5.276;2022-12-10T21:44:07;0.00;99.90
39017;DHT22;24784;45.582;5.276;2022-12-10T21:46:33;0.10;99.90
39017;DHT22;24784;45.582;5.276;2022-12-10T21:48:59;0.00;99.90
39017;DHT22;24784;45.582;5.276;2022-12-10T21:51:26;0.10;99.90
39017;DHT22;24784;45.582;5.276;2022-12-10T21:53:52;0.00;99.90
39017;DHT22;24784;45.582;5.276;2022-12-10T21:56:18;0.00;99.90
39017;DHT22;24784;45.582;5.276;2022-12-10T21:58:43;0.00;99.90
39017;DHT22;24784;45.582;5.276;2022-12-10T22:01:09;-0.10;99.90
39017;DHT22;24784;45.582;5.276;2022-12-10T22:03:37;-0.10;99.90
39017;DHT22;24784;45.582;5.276;2022-12-10T22:06:03;-0.10;99.90
39017;DHT22;24784;45.582;5.276;2022-12-10T22:08:29;0.00;99.90
39017;DHT22;24784;45.582;5.276;2022-12-10T22:10:55;0.00;99.90
39017;DHT22;24784;45.582;5.276;2022-12-10T22:13:21;0.00;99.90
39017;DHT22;24784;45.582;5.276;2022-12-10T22:15:47;-0.10;99.90
39017;DHT22;24784;45.582;5.276;2022-12-10T22:18:14;0.00;99.90
39017;DHT22;24784;45.582;5.276;2022-12-10T22:20:40;-0.10;99.90
39017;DHT22;24784;45.582;5.276;2022-12-10T22:23:07;0.00;99.90
39017;DHT22;24784;45.582;5.276;2022-12-10T22:25:34;0.10;99.90
39017;DHT22;24784;45.582;5.276;2022-12-10T22:27:59;0.00;99.90
39017;DHT22;24784;45.582;5.276;2022-12-10T22:30:25;0.00;99.90
39017;DHT22;24784;45.582;5.276;2022-12-10T22:32:51;0.00;99.90
39017;DHT22;24784;45.582;5.276;2022-12-10T22:35:18;0.00;99.90
39017;DHT22;24784;45.582;5.276;2022-12-10T22:37:44;0.00;99.90
39017;DHT22;24784;45.582;5.276;2022-12-10T22:40:11;-0.10;99.90
39017;DHT22;24784;45.582;5.276;2022-12-10T22:42:37;-0.20;99.90
39017;DHT22;24784;45.582;5.276;2022-12-10T22:45:08;-0.20;99.90
39017;DHT22;24784;45.582;5.276;2022-12-10T22:47:34;-0.10;99.90
39017;DHT22;24784;45.582;5.276;2022-12-10T22:50:00;-0.20;99.90
39017;DHT22;24784;45.582;5.276;2022-12-10T22:52:28;-0.20;99.90
39017;DHT22;24784;45.582;5.276;2022-12-10T22:54:54;-0.20;99.90
39017;DHT22;24784;45.582;5.276;2022-12-10T22:57:20;-0.20;99.90
39017;DHT22;24784;45.582;5.276;2022-12-10T22:59:46;-0.20;99.90
39017;DHT22;24784;45.582;5.276;2022-12-10T23:02:12;-0.20;99.90
39017;DHT22;24784;45.582;5.276;2022-12-10T23:04:38;-0.20;99.90
39017;DHT22;24784;45.582;5.276;2022-12-10T23:07:04;-0.20;99.90
39017;DHT22;24784;45.582;5.276;2022-12-10T23:09:30;-0.20;99.90
39017;DHT22;24784;45.582;5.276;2022-12-10T23:11:56;-0.30;99.90
39017;DHT22;24784;45.582;5.276;2022-12-10T23:14:40;-0.30;99.90
39017;DHT22;24784;45.582;5.276;2022-12-10T23:17:06;-0.30;99.90
39017;DHT22;24784;45.582;5.276;2022-12-10T23:19:32;-0.30;99.90
39017;DHT22;24784;45.582;5.276;2022-12-10T23:21:58;-0.30;99.90
39017;DHT22;24784;45.582;5.276;2022-12-10T23:24:24;-0.30;99.90
